sensor_id;sensor_type;location;lat;lon;timestamp;pressure;altitude;pressure_sealevel;temperature;humidity
7337;BME280;54510;42.016;23.098;2023-03-21T00:01:03;-21475.63;;;12.41;55.28
7337;BME280;54510;42.016;23.098;2023-03-21T00:03:30;-21474.78;;;12.38;55.37
7337;BME280;54510;42.016;23.098;2023-03-21T00:05:55;-21471.59;;;12.26;55.68
7337;BME280;54510;42.016;23.098;2023-03-21T00:08:22;-21468.00;;;12.13;56.19
7337;BME280;54510;42.016;23.098;2023-03-21T00:10:54;-21466.88;;;12.09;56.97
7337;BME280;54510;42.016;23.098;2023-03-21T00:13:19;-21467.88;;;12.12;56.15
7337;BME280;54510;42.016;23.098;2023-03-21T00:15:44;-21468.97;;;12.16;55.80
7337;BME280;54510;42.016;23.098;2023-03-21T00:18:18;-21470.09;;;12.20;55.41
7337;BME280;54510;42.016;23.098;2023-03-21T00:20:54;-21470.22;;;12.21;55.04
7337;BME280;54510;42.016;23.098;2023-03-21T00:23:20;-21467.72;;;12.12;55.17
7337;BME280;54510;42.016;23.098;2023-03-21T00:25:45;-21466.19;;;12.06;55.28
7337;BME280;54510;42.016;23.098;2023-03-21T00:28:11;-21467.03;;;12.09;55.80
7337;BME280;54510;42.016;23.098;2023-03-21T00:30:38;-21463.56;;;11.97;55.54
7337;BME280;54510;42.016;23.098;2023-03-21T00:33:03;-21463.44;;;11.96;55.70
7337;BME280;54510;42.016;23.098;2023-03-21T00:35:29;-21464.69;;;12.01;55.47
7337;BME280;54510;42.016;23.098;2023-03-21T00:37:54;-21466.19;;;12.06;55.81
7337;BME280;54510;42.016;23.098;2023-03-21T00:40:19;-21463.72;;;11.97;56.03
7337;BME280;54510;42.016;23.098;2023-03-21T00:42:45;-21461.75;;;11.90;56.54
7337;BME280;54510;42.016;23.098;2023-03-21T00:45:10;-21462.75;;;11.94;56.52
7337;BME280;54510;42.016;23.098;2023-03-21T00:47:35;-21461.75;;;11.90;56.52
7337;BME280;54510;42.016;23.098;2023-03-21T00:50:01;-21458.72;;;11.79;57.89
7337;BME280;54510;42.016;23.098;2023-03-21T00:52:28;-21457.59;;;11.75;58.27
7337;BME280;54510;42.016;23.098;2023-03-21T00:54:53;-21456.50;;;11.71;57.98
7337;BME280;54510;42.016;23.098;2023-03-21T00:57:18;-21457.88;;;11.76;57.79
7337;BME280;54510;42.016;23.098;2023-03-21T00:59:44;-21458.84;;;11.79;57.56
7337;BME280;54510;42.016;23.098;2023-03-21T01:02:09;-21458.44;;;11.78;57.37
7337;BME280;54510;42.016;23.098;2023-03-21T01:04:38;-21454.56;;;11.64;57.55
7337;BME280;54510;42.016;23.098;2023-03-21T01:07:04;-21456.50;;;11.71;57.72
7337;BME280;54510;42.016;23.098;2023-03-21T01:09:29;-21452.34;;;11.56;59.01
7337;BME280;54510;42.016;23.098;2023-03-21T01:11:54;-21447.63;;;11.38;59.53
7337;BME280;54510;42.016;23.098;2023-03-21T01:14:20;-21447.06;;;11.36;60.01
7337;BME280;54510;42.016;23.098;2023-03-21T01:16:46;-21447.91;;;11.39;59.78
7337;BME280;54510;42.016;23.098;2023-03-21T01:19:15;-21452.06;;;11.55;59.33
7337;BME280;54510;42.016;23.098;2023-03-21T01:21:41;-21456.50;;;11.71;59.04
7337;BME280;54510;42.016;23.098;2023-03-21T01:24:06;-21458.44;;;11.78;58.52
7337;BME280;54510;42.016;23.098;2023-03-21T01:26:32;-21459.53;;;11.82;58.52
7337;BME280;54510;42.016;23.098;2023-03-21T01:28:57;-21457.19;;;11.73;58.87
7337;BME280;54510;42.016;23.098;2023-03-21T01:31:22;-21455.66;;;11.68;58.90
7337;BME280;54510;42.016;23.098;2023-03-21T01:33:48;-21454.13;;;11.62;58.74
7337;BME280;54510;42.016;23.098;2023-03-21T01:36:17;-21457.47;;;11.74;58.48
7337;BME280;54510;42.016;23.098;2023-03-21T01:38:43;-21459.00;;;11.80;58.15
7337;BME280;54510;42.016;23.098;2023-03-21T01:41:30;-21457.31;;;11.74;58.29
7337;BME280;54510;42.016;23.098;2023-03-21T01:43:54;-21459.53;;;11.82;58.21
7337;BME280;54510;42.016;23.098;2023-03-21T01:51:36;-21454.56;;;11.64;58.78
7337;BME280;54510;42.016;23.098;2023-03-21T01:54:02;-21447.75;;;11.39;59.71
7337;BME280;54510;42.016;23.098;2023-03-21T01:56:30;-21443.03;;;11.22;60.29
7337;BME280;54510;42.016;23.098;2023-03-21T01:59:01;-21446.22;;;11.33;60.33
7337;BME280;54510;42.016;23.098;2023-03-21T02:01:29;-21447.06;;;11.36;60.07
7337;BME280;54510;42.016;23.098;2023-03-21T02:03:56;-21445.69;;;11.31;60.30
7337;BME280;54510;42.016;23.098;2023-03-21T02:07:05;-21446.50;;;11.34;60.01
7337;BME280;54510;42.016;23.098;2023-03-21T02:09:11;-21444.84;;;11.28;60.26
7337;BME280;54510;42.016;23.098;2023-03-21T02:11:37;-21445.81;;;11.32;59.98
7337;BME280;54510;42.016;23.098;2023-03-21T02:14:03;-21445.53;;;11.31;60.14
7337;BME280;54510;42.016;23.098;2023-03-21T02:21:36;-21447.19;;;11.37;60.20
7337;BME280;54510;42.016;23.098;2023-03-21T02:37:20;-21434.16;;;10.89;61.81
7337;BME280;54510;42.016;23.098;2023-03-21T02:39:54;-21433.75;;;10.88;61.76
7337;BME280;54510;42.016;23.098;2023-03-21T02:45:01;-21432.91;;;10.85;62.09
7337;BME280;54510;42.016;23.098;2023-03-21T02:47:33;-21427.22;;;10.64;62.37
7337;BME280;54510;42.016;23.098;2023-03-21T02:52:31;-21424.03;;;10.52;62.74
7337;BME280;54510;42.016;23.098;2023-03-21T02:54:57;-21425.41;;;10.57;62.73
7337;BME280;54510;42.016;23.098;2023-03-21T02:57:25;-21422.22;;;10.46;63.26
7337;BME280;54510;42.016;23.098;2023-03-21T02:59:50;-21418.47;;;10.32;63.15
7337;BME280;54510;42.016;23.098;2023-03-21T03:02:18;-21415.69;;;10.22;63.42
7337;BME280;54510;42.016;23.098;2023-03-21T03:04:44;-21418.91;;;10.34;63.08
7337;BME280;54510;42.016;23.098;2023-03-21T03:07:44;-21415.56;;;10.21;63.64
7337;BME280;54510;42.016;23.098;2023-03-21T03:12:32;-21416.25;;;10.24;63.38
7337;BME280;54510;42.016;23.098;2023-03-21T03:17:45;-21420.00;;;10.38;62.58
7337;BME280;54510;42.016;23.098;2023-03-21T03:23:24;-21423.34;;;10.50;61.92
7337;BME280;54510;42.016;23.098;2023-03-21T03:25:29;-21413.75;;;10.15;62.76
7337;BME280;54510;42.016;23.098;2023-03-21T03:27:56;-21417.50;;;10.28;62.05
7337;BME280;54510;42.016;23.098;2023-03-21T03:30:23;-21420.13;;;10.38;62.16
7337;BME280;54510;42.016;23.098;2023-03-21T03:32:52;-21422.22;;;10.46;61.81
7337;BME280;54510;42.016;23.098;2023-03-21T03:35:18;-21423.88;;;10.52;61.80
7337;BME280;54510;42.016;23.098;2023-03-21T03:37:46;-21424.59;;;10.54;61.76
7337;BME280;54510;42.016;23.098;2023-03-21T03:42:47;-21421.66;;;10.44;62.72
7337;BME280;54510;42.016;23.098;2023-03-21T03:45:13;-21422.78;;;10.48;62.66
7337;BME280;54510;42.016;23.098;2023-03-21T03:47:50;-21423.47;;;10.50;62.86
7337;BME280;54510;42.016;23.098;2023-03-21T03:50:30;-21420.13;;;10.38;63.16
7337;BME280;54510;42.016;23.098;2023-03-21T03:53:02;-21417.09;;;10.27;63.11
7337;BME280;54510;42.016;23.098;2023-03-21T03:55:29;-21417.09;;;10.27;63.05
7337;BME280;54510;42.016;23.098;2023-03-21T03:57:58;-21413.19;;;10.13;63.11
7337;BME280;54510;42.016;23.098;2023-03-21T04:00:24;-21409.16;;;9.98;63.43
7337;BME280;54510;42.016;23.098;2023-03-21T04:02:51;-21412.38;;;10.10;63.62
7337;BME280;54510;42.016;23.098;2023-03-21T04:05:16;-21412.78;;;10.11;63.61
7337;BME280;54510;42.016;23.098;2023-03-21T04:07:45;-21416.94;;;10.26;63.34
7337;BME280;54510;42.016;23.098;2023-03-21T04:10:10;-21417.78;;;10.29;63.63
7337;BME280;54510;42.016;23.098;2023-03-21T04:12:36;-21414.59;;;10.18;64.14
7337;BME280;54510;42.016;23.098;2023-03-21T04:15:01;-21411.81;;;10.08;65.27
7337;BME280;54510;42.016;23.098;2023-03-21T04:17:26;-21410.69;;;10.04;64.99
7337;BME280;54510;42.016;23.098;2023-03-21T04:19:51;-21407.63;;;9.93;64.28
7337;BME280;54510;42.016;23.098;2023-03-21T04:22:17;-21406.38;;;9.88;64.11
7337;BME280;54510;42.016;23.098;2023-03-21T04:24:42;-21408.34;;;9.95;64.17
7337;BME280;54510;42.016;23.098;2023-03-21T04:27:08;-21411.53;;;10.07;63.77
7337;BME280;54510;42.016;23.098;2023-03-21T04:29:33;-21414.03;;;10.16;63.04
7337;BME280;54510;42.016;23.098;2023-03-21T04:31:58;-21414.72;;;10.18;62.84
7337;BME280;54510;42.016;23.098;2023-03-21T04:34:25;-21412.91;;;10.12;63.92
7337;BME280;54510;42.016;23.098;2023-03-21T04:36:55;-21409.03;;;9.98;63.87
7337;BME280;54510;42.016;23.098;2023-03-21T04:39:21;-21403.06;;;9.76;64.11
7337;BME280;54510;42.016;23.098;2023-03-21T04:41:46;-21409.31;;;9.99;64.14
7337;BME280;54510;42.016;23.098;2023-03-21T04:44:12;-21411.66;;;10.07;63.67
7337;BME280;54510;42.016;23.098;2023-03-21T04:46:38;-21412.22;;;10.09;63.45
7337;BME280;54510;42.016;23.098;2023-03-21T04:49:04;-21414.16;;;10.16;63.51
7337;BME280;54510;42.016;23.098;2023-03-21T04:51:31;-21410.69;;;10.04;63.97
7337;BME280;54510;42.016;23.098;2023-03-21T04:53:56;-21411.09;;;10.05;63.95
7337;BME280;54510;42.016;23.098;2023-03-21T04:56:23;-21408.19;;;9.95;63.87
7337;BME280;54510;42.016;23.098;2023-03-21T04:58:54;-21408.47;;;9.96;63.84
7337;BME280;54510;42.016;23.098;2023-03-21T05:01:19;-21404.88;;;9.82;64.32
7337;BME280;54510;42.016;23.098;2023-03-21T05:03:45;-21403.19;;;9.76;64.52
7337;BME280;54510;42.016;23.098;2023-03-21T05:06:10;-21408.88;;;9.97;64.29
7337;BME280;54510;42.016;23.098;2023-03-21T05:08:36;-21405.97;;;9.86;64.49
7337;BME280;54510;42.016;23.098;2023-03-21T05:11:02;-21407.09;;;9.90;64.31
7337;BME280;54510;42.016;23.098;2023-03-21T05:13:27;-21416.94;;;10.26;63.67
7337;BME280;54510;42.016;23.098;2023-03-21T05:15:53;-21421.53;;;10.43;62.65
7337;BME280;54510;42.016;23.098;2023-03-21T05:18:18;-21422.78;;;10.48;62.63
7337;BME280;54510;42.016;23.098;2023-03-21T05:20:49;-21422.22;;;10.46;62.31
7337;BME280;54510;42.016;23.098;2023-03-21T05:23:21;-21425.00;;;10.56;61.72
7337;BME280;54510;42.016;23.098;2023-03-21T05:25:47;-21428.06;;;10.67;62.00
7337;BME280;54510;42.016;23.098;2023-03-21T05:28:13;-21430.00;;;10.74;61.59
7337;BME280;54510;42.016;23.098;2023-03-21T05:30:42;-21432.91;;;10.85;60.48
7337;BME280;54510;42.016;23.098;2023-03-21T05:33:07;-21430.41;;;10.76;59.94
7337;BME280;54510;42.016;23.098;2023-03-21T05:35:32;-21430.69;;;10.77;59.94
7337;BME280;54510;42.016;23.098;2023-03-21T05:37:57;-21433.47;;;10.87;59.57
7337;BME280;54510;42.016;23.098;2023-03-21T05:40:23;-21436.25;;;10.97;59.24
7337;BME280;54510;42.016;23.098;2023-03-21T05:42:48;-21439.56;;;11.09;59.26
7337;BME280;54510;42.016;23.098;2023-03-21T05:45:14;-21433.59;;;10.87;59.66
7337;BME280;54510;42.016;23.098;2023-03-21T05:47:40;-21430.13;;;10.75;60.87
7337;BME280;54510;42.016;23.098;2023-03-21T05:50:05;-21436.53;;;10.98;60.33
7337;BME280;54510;42.016;23.098;2023-03-21T05:52:31;-21435.69;;;10.95;60.10
7337;BME280;54510;42.016;23.098;2023-03-21T05:54:56;-21436.25;;;10.97;59.95
7337;BME280;54510;42.016;23.098;2023-03-21T05:57:21;-21439.16;;;11.07;60.27
7337;BME280;54510;42.016;23.098;2023-03-21T05:59:47;-21445.13;;;11.29;59.53
7337;BME280;54510;42.016;23.098;2023-03-21T06:02:12;-21449.84;;;11.46;58.89
7337;BME280;54510;42.016;23.098;2023-03-21T06:04:37;-21454.00;;;11.62;58.34
7337;BME280;54510;42.016;23.098;2023-03-21T06:07:03;-21456.63;;;11.71;58.12
7337;BME280;54510;42.016;23.098;2023-03-21T06:09:28;-21460.53;;;11.85;57.80
7337;BME280;54510;42.016;23.098;2023-03-21T06:11:54;-21460.94;;;11.87;57.96
7337;BME280;54510;42.016;23.098;2023-03-21T06:14:20;-21463.84;;;11.98;57.69
7337;BME280;54510;42.016;23.098;2023-03-21T06:16:46;-21467.03;;;12.09;57.46
7337;BME280;54510;42.016;23.098;2023-03-21T06:19:11;-21470.50;;;12.22;56.89
7337;BME280;54510;42.016;23.098;2023-03-21T06:21:36;-21468.41;;;12.14;57.00
7337;BME280;54510;42.016;23.098;2023-03-21T06:24:02;-21468.41;;;12.14;57.09
7337;BME280;54510;42.016;23.098;2023-03-21T06:26:27;-21468.56;;;12.15;56.76
7337;BME280;54510;42.016;23.098;2023-03-21T06:28:53;-21468.56;;;12.15;57.16
7337;BME280;54510;42.016;23.098;2023-03-21T06:31:18;-21471.75;;;12.26;56.73
7337;BME280;54510;42.016;23.098;2023-03-21T06:33:46;-21476.16;;;12.43;56.25
7337;BME280;54510;42.016;23.098;2023-03-21T06:36:12;-21480.47;;;12.58;55.75
7337;BME280;54510;42.016;23.098;2023-03-21T06:38:37;-21479.78;;;12.56;55.57
7337;BME280;54510;42.016;23.098;2023-03-21T06:41:03;-21472.56;;;12.30;55.92
7337;BME280;54510;42.016;23.098;2023-03-21T06:43:28;-21478.66;;;12.52;55.42
7337;BME280;54510;42.016;23.098;2023-03-21T06:45:54;-21483.94;;;12.71;55.05
7337;BME280;54510;42.016;23.098;2023-03-21T06:48:19;-21488.78;;;12.89;54.46
7337;BME280;54510;42.016;23.098;2023-03-21T06:50:46;-21491.25;;;12.98;54.09
7337;BME280;54510;42.016;23.098;2023-03-21T06:53:12;-21491.97;;;13.00;53.96
7337;BME280;54510;42.016;23.098;2023-03-21T06:55:37;-21494.44;;;13.10;53.96
7337;BME280;54510;42.016;23.098;2023-03-21T06:58:02;-21497.22;;;13.20;53.74
7337;BME280;54510;42.016;23.098;2023-03-21T07:00:27;-21491.81;;;13.00;54.34
7337;BME280;54510;42.016;23.098;2023-03-21T07:02:53;-21495.00;;;13.12;54.17
7337;BME280;54510;42.016;23.098;2023-03-21T07:05:18;-21498.06;;;13.23;53.78
7337;BME280;54510;42.016;23.098;2023-03-21T07:07:43;-21496.13;;;13.16;53.92
7337;BME280;54510;42.016;23.098;2023-03-21T07:10:09;-21502.63;;;13.39;54.52
7337;BME280;54510;42.016;23.098;2023-03-21T07:12:34;-21509.13;;;13.63;52.60
7337;BME280;54510;42.016;23.098;2023-03-21T07:15:03;-21510.78;;;13.69;51.96
7337;BME280;54510;42.016;23.098;2023-03-21T07:17:30;-21508.56;;;13.61;52.16
7337;BME280;54510;42.016;23.098;2023-03-21T07:19:56;-21509.13;;;13.63;51.84
7337;BME280;54510;42.016;23.098;2023-03-21T07:22:21;-21509.94;;;13.66;51.68
7337;BME280;54510;42.016;23.098;2023-03-21T07:24:46;-21512.03;;;13.74;51.82
7337;BME280;54510;42.016;23.098;2023-03-21T07:27:12;-21516.03;;;13.89;51.35
7337;BME280;54510;42.016;23.098;2023-03-21T07:29:38;-21515.06;;;13.85;51.39
7337;BME280;54510;42.016;23.098;2023-03-21T07:32:03;-21510.63;;;13.69;51.20
7337;BME280;54510;42.016;23.098;2023-03-21T07:34:28;-21518.94;;;13.99;51.09
7337;BME280;54510;42.016;23.098;2023-03-21T07:36:57;-21527.38;;;14.30;50.47
7337;BME280;54510;42.016;23.098;2023-03-21T07:39:22;-21532.06;;;14.47;49.96
7337;BME280;54510;42.016;23.098;2023-03-21T07:41:47;-21536.22;;;14.62;49.28
7337;BME280;54510;42.016;23.098;2023-03-21T07:44:13;-21536.63;;;14.64;48.87
7337;BME280;54510;42.016;23.098;2023-03-21T07:46:38;-21534.56;;;14.56;48.71
7337;BME280;54510;42.016;23.098;2023-03-21T07:49:03;-21529.16;;;14.37;48.87
7337;BME280;54510;42.016;23.098;2023-03-21T07:51:30;-21536.50;;;14.63;47.99
7337;BME280;54510;42.016;23.098;2023-03-21T07:53:55;-21551.41;;;15.18;47.48
7337;BME280;54510;42.016;23.098;2023-03-21T07:56:20;-21561.19;;;15.54;45.96
7337;BME280;54510;42.016;23.098;2023-03-21T07:58:45;-21555.53;;;15.33;45.95
7337;BME280;54510;42.016;23.098;2023-03-21T08:01:11;-21555.97;;;15.35;45.92
7337;BME280;54510;42.016;23.098;2023-03-21T08:03:36;-21568.66;;;15.82;44.98
7337;BME280;54510;42.016;23.098;2023-03-21T08:06:02;-21572.09;;;15.94;45.36
7337;BME280;54510;42.016;23.098;2023-03-21T08:08:27;-21580.91;;;16.27;44.75
7337;BME280;54510;42.016;23.098;2023-03-21T08:10:53;-21579.97;;;16.23;45.00
7337;BME280;54510;42.016;23.098;2023-03-21T08:13:18;-21575.97;;;16.08;45.32
7337;BME280;54510;42.016;23.098;2023-03-21T08:15:43;-21581.75;;;16.30;44.82
7337;BME280;54510;42.016;23.098;2023-03-21T08:18:09;-21588.09;;;16.53;44.68
7337;BME280;54510;42.016;23.098;2023-03-21T08:20:34;-21580.50;;;16.25;44.57
7337;BME280;54510;42.016;23.098;2023-03-21T08:23:00;-21578.56;;;16.18;46.09
7337;BME280;54510;42.016;23.098;2023-03-21T08:25:25;-21582.03;;;16.31;46.26
7337;BME280;54510;42.016;23.098;2023-03-21T08:27:51;-21583.53;;;16.36;45.92
7337;BME280;54510;42.016;23.098;2023-03-21T08:30:18;-21582.28;;;16.32;45.76
7337;BME280;54510;42.016;23.098;2023-03-21T08:32:43;-21585.06;;;16.42;45.86
7337;BME280;54510;42.016;23.098;2023-03-21T08:35:10;-21586.16;;;16.46;45.53
7337;BME280;54510;42.016;23.098;2023-03-21T08:37:36;-21586.16;;;16.46;46.11
7337;BME280;54510;42.016;23.098;2023-03-21T08:40:03;-21584.66;;;16.40;46.20
7337;BME280;54510;42.016;23.098;2023-03-21T08:42:31;-21583.41;;;16.36;46.56
7337;BME280;54510;42.016;23.098;2023-03-21T08:44:56;-21582.28;;;16.32;46.85
7337;BME280;54510;42.016;23.098;2023-03-21T08:47:22;-21578.44;;;16.17;46.90
7337;BME280;54510;42.016;23.098;2023-03-21T08:49:47;-21582.16;;;16.31;46.25
7337;BME280;54510;42.016;23.098;2023-03-21T08:52:12;-21583.53;;;16.36;46.19
7337;BME280;54510;42.016;23.098;2023-03-21T08:54:37;-21590.84;;;16.63;45.58
7337;BME280;54510;42.016;23.098;2023-03-21T08:57:04;-21603.25;;;17.09;44.80
7337;BME280;54510;42.016;23.098;2023-03-21T08:59:30;-21604.34;;;17.13;44.67
7337;BME280;54510;42.016;23.098;2023-03-21T09:01:55;-21605.44;;;17.17;44.91
7337;BME280;54510;42.016;23.098;2023-03-21T09:04:20;-21597.59;;;16.88;45.34
7337;BME280;54510;42.016;23.098;2023-03-21T09:06:46;-21603.38;;;17.09;45.05
7337;BME280;54510;42.016;23.098;2023-03-21T09:09:13;-21606.28;;;17.20;44.57
7337;BME280;54510;42.016;23.098;2023-03-21T09:11:38;-21612.31;;;17.42;43.72
7337;BME280;54510;42.016;23.098;2023-03-21T09:14:03;-21616.47;;;17.57;43.40
7337;BME280;54510;42.016;23.098;2023-03-21T09:16:29;-21616.59;;;17.58;42.85
7337;BME280;54510;42.016;23.098;2023-03-21T09:18:55;-21617.56;;;17.61;42.88
7337;BME280;54510;42.016;23.098;2023-03-21T09:21:23;-21620.44;;;17.72;42.32
7337;BME280;54510;42.016;23.098;2023-03-21T09:23:49;-21611.09;;;17.37;42.75
7337;BME280;54510;42.016;23.098;2023-03-21T09:26:17;-21624.44;;;17.87;42.24
7337;BME280;54510;42.016;23.098;2023-03-21T09:28:43;-21630.50;;;18.09;41.36
7337;BME280;54510;42.016;23.098;2023-03-21T09:31:10;-21632.28;;;18.15;41.33
7337;BME280;54510;42.016;23.098;2023-03-21T09:33:36;-21638.75;;;18.39;41.11
7337;BME280;54510;42.016;23.098;2023-03-21T09:36:02;-21645.63;;;18.65;40.18
7337;BME280;54510;42.016;23.098;2023-03-21T09:38:36;-21644.50;;;18.61;40.02
7337;BME280;54510;42.016;23.098;2023-03-21T09:48:35;-21627.75;;;17.99;40.70
7337;BME280;54510;42.016;23.098;2023-03-21T09:51:03;-21636.69;;;18.32;40.00
7337;BME280;54510;42.016;23.098;2023-03-21T09:53:39;-21643.97;;;18.59;39.76
7337;BME280;54510;42.016;23.098;2023-03-21T09:56:05;-21652.47;;;18.90;39.09
7337;BME280;54510;42.016;23.098;2023-03-21T09:58:36;-21662.38;;;19.26;38.43
7337;BME280;54510;42.016;23.098;2023-03-21T10:03:40;-21656.59;;;19.05;38.70
7337;BME280;54510;42.016;23.098;2023-03-21T10:06:12;-21659.91;;;19.17;38.30
7337;BME280;54510;42.016;23.098;2023-03-21T10:08:39;-21658.53;;;19.12;37.96
7337;BME280;54510;42.016;23.098;2023-03-21T10:11:08;-21663.47;;;19.30;38.03
7337;BME280;54510;42.016;23.098;2023-03-21T10:13:38;-21667.72;;;19.46;37.45
7337;BME280;54510;42.016;23.098;2023-03-21T10:16:15;-21673.06;;;19.66;37.14
7337;BME280;54510;42.016;23.098;2023-03-21T10:18:41;-21680.63;;;19.94;37.03
7337;BME280;54510;42.016;23.098;2023-03-21T10:21:09;-21687.47;;;20.19;36.93
7337;BME280;54510;42.016;23.098;2023-03-21T10:23:36;-21687.75;;;20.20;36.26
7337;BME280;54510;42.016;23.098;2023-03-21T10:26:02;-21689.25;;;20.26;36.04
7337;BME280;54510;42.016;23.098;2023-03-21T10:28:36;-21690.91;;;20.32;36.18
7337;BME280;54510;42.016;23.098;2023-03-21T10:31:05;-21691.03;;;20.32;35.78
7337;BME280;54510;42.016;23.098;2023-03-21T10:33:35;-21692.00;;;20.36;35.80
7337;BME280;54510;42.016;23.098;2023-03-21T10:36:04;-21688.03;;;20.21;35.71
7337;BME280;54510;42.016;23.098;2023-03-21T10:38:31;-21673.34;;;19.67;36.33
7337;BME280;54510;42.016;23.098;2023-03-21T10:40:56;-21674.03;;;19.69;36.44
7337;BME280;54510;42.016;23.098;2023-03-21T10:45:50;-21691.31;;;20.33;35.76
7337;BME280;54510;42.016;23.098;2023-03-21T10:48:16;-21701.59;;;20.71;35.11
7337;BME280;54510;42.016;23.098;2023-03-21T10:50:41;-21702.81;;;20.76;35.02
7337;BME280;54510;42.016;23.098;2023-03-21T10:53:15;-21707.63;;;20.94;34.76
7337;BME280;54510;42.016;23.098;2023-03-21T10:55:41;-21707.63;;;20.94;33.52
7337;BME280;54510;42.016;23.098;2023-03-21T10:58:07;-21712.16;;;21.10;33.86
7337;BME280;54510;42.016;23.098;2023-03-21T11:00:38;-21707.91;;;20.95;33.91
7337;BME280;54510;42.016;23.098;2023-03-21T11:03:05;-21712.81;;;21.13;33.80
7337;BME280;54510;42.016;23.098;2023-03-21T11:05:35;-21715.44;;;21.22;33.20
7337;BME280;54510;42.016;23.098;2023-03-21T11:08:14;-21709.28;;;21.00;32.51
7337;BME280;54510;42.016;23.098;2023-03-21T11:11:18;-21717.91;;;21.32;32.73
7337;BME280;54510;42.016;23.098;2023-03-21T11:13:39;-21721.88;;;21.46;32.39
7337;BME280;54510;42.016;23.098;2023-03-21T11:16:17;-21721.88;;;21.46;32.17
7337;BME280;54510;42.016;23.098;2023-03-21T11:18:43;-21719.81;;;21.39;32.00
7337;BME280;54510;42.016;23.098;2023-03-21T11:21:13;-21722.28;;;21.48;31.91
7337;BME280;54510;42.016;23.098;2023-03-21T11:23:40;-21724.06;;;21.54;32.19
7337;BME280;54510;42.016;23.098;2023-03-21T11:26:15;-21719.53;;;21.38;32.48
7337;BME280;54510;42.016;23.098;2023-03-21T11:28:44;-21717.09;;;21.28;32.34
7337;BME280;54510;42.016;23.098;2023-03-21T11:31:10;-21714.47;;;21.19;32.35
7337;BME280;54510;42.016;23.098;2023-03-21T11:33:50;-21715.56;;;21.23;32.90
7337;BME280;54510;42.016;23.098;2023-03-21T11:38:49;-21715.97;;;21.24;32.42
7337;BME280;54510;42.016;23.098;2023-03-21T11:41:48;-21714.63;;;21.19;33.25
7337;BME280;54510;42.016;23.098;2023-03-21T11:44:08;-21717.22;;;21.29;32.97
7337;BME280;54510;42.016;23.098;2023-03-21T11:46:47;-21720.78;;;21.42;32.66
7337;BME280;54510;42.016;23.098;2023-03-21T11:49:12;-21725.16;;;21.58;32.40
7337;BME280;54510;42.016;23.098;2023-03-21T11:54:17;-21720.09;;;21.40;32.73
7337;BME280;54510;42.016;23.098;2023-03-21T11:56:45;-21724.47;;;21.56;32.88
7337;BME280;54510;42.016;23.098;2023-03-21T12:14:41;-21718.31;;;21.33;32.24
7337;BME280;54510;42.016;23.098;2023-03-21T12:24:52;-21697.34;;;20.56;32.50
7337;BME280;54510;42.016;23.098;2023-03-21T12:27:32;-21700.91;;;20.69;32.29
7337;BME280;54510;42.016;23.098;2023-03-21T12:32:50;-21702.69;;;20.75;32.82
7337;BME280;54510;42.016;23.098;2023-03-21T12:38:14;-21699.41;;;20.63;32.87
7337;BME280;54510;42.016;23.098;2023-03-21T12:46:09;-21697.22;;;20.55;32.86
7337;BME280;54510;42.016;23.098;2023-03-21T12:51:13;-21697.75;;;20.57;32.52
7337;BME280;54510;42.016;23.098;2023-03-21T12:53:55;-21698.31;;;20.59;32.81
7337;BME280;54510;42.016;23.098;2023-03-21T12:56:32;-21702.28;;;20.74;32.59
7337;BME280;54510;42.016;23.098;2023-03-21T13:01:30;-21702.69;;;20.75;33.18
7337;BME280;54510;42.016;23.098;2023-03-21T13:04:06;-21703.50;;;20.78;33.28
7337;BME280;54510;42.016;23.098;2023-03-21T13:06:33;-21703.78;;;20.79;33.64
7337;BME280;54510;42.016;23.098;2023-03-21T13:11:56;-21701.59;;;20.71;33.92
7337;BME280;54510;42.016;23.098;2023-03-21T13:14:23;-21703.09;;;20.77;34.04
7337;BME280;54510;42.016;23.098;2023-03-21T13:16:59;-21706.25;;;20.88;33.39
7337;BME280;54510;42.016;23.098;2023-03-21T13:22:09;-21703.50;;;20.78;32.80
7337;BME280;54510;42.016;23.098;2023-03-21T13:24:48;-21699.53;;;20.64;33.07
7337;BME280;54510;42.016;23.098;2023-03-21T13:27:17;-21705.56;;;20.86;33.00
7337;BME280;54510;42.016;23.098;2023-03-21T13:29:45;-21705.28;;;20.85;32.93
7337;BME280;54510;42.016;23.098;2023-03-21T13:34:55;-21698.84;;;20.61;32.75
7337;BME280;54510;42.016;23.098;2023-03-21T13:37:22;-21697.63;;;20.57;32.43
7337;BME280;54510;42.016;23.098;2023-03-21T13:39:49;-21691.88;;;20.35;32.05
7337;BME280;54510;42.016;23.098;2023-03-21T13:42:21;-21685.56;;;20.12;32.25
7337;BME280;54510;42.016;23.098;2023-03-21T13:44:48;-21688.84;;;20.24;32.75
7337;BME280;54510;42.016;23.098;2023-03-21T13:50:32;-21680.75;;;19.94;33.28
7337;BME280;54510;42.016;23.098;2023-03-21T13:58:22;-21677.06;;;19.81;32.77
7337;BME280;54510;42.016;23.098;2023-03-21T14:03:47;-21676.91;;;19.80;33.12
7337;BME280;54510;42.016;23.098;2023-03-21T14:06:12;-21675.00;;;19.73;33.14
7337;BME280;54510;42.016;23.098;2023-03-21T14:08:43;-21676.78;;;19.80;33.06
7337;BME280;54510;42.016;23.098;2023-03-21T14:11:11;-21676.91;;;19.80;32.91
7337;BME280;54510;42.016;23.098;2023-03-21T14:13:40;-21672.13;;;19.62;33.49
7337;BME280;54510;42.016;23.098;2023-03-21T14:16:06;-21671.56;;;19.60;33.41
7337;BME280;54510;42.016;23.098;2023-03-21T14:18:39;-21673.63;;;19.68;34.01
7337;BME280;54510;42.016;23.098;2023-03-21T14:21:05;-21671.44;;;19.60;34.33
7337;BME280;54510;42.016;23.098;2023-03-21T14:23:30;-21673.06;;;19.66;34.37
7337;BME280;54510;42.016;23.098;2023-03-21T14:25:56;-21673.22;;;19.66;34.18
7337;BME280;54510;42.016;23.098;2023-03-21T14:28:24;-21671.28;;;19.59;33.90
7337;BME280;54510;42.016;23.098;2023-03-21T14:30:56;-21664.44;;;19.34;33.91
7337;BME280;54510;42.016;23.098;2023-03-21T14:33:37;-21668.13;;;19.48;33.79
7337;BME280;54510;42.016;23.098;2023-03-21T14:36:13;-21668.69;;;19.50;34.39
7337;BME280;54510;42.016;23.098;2023-03-21T14:38:39;-21669.50;;;19.53;34.49
7337;BME280;54510;42.016;23.098;2023-03-21T14:41:05;-21669.09;;;19.51;33.91
7337;BME280;54510;42.016;23.098;2023-03-21T14:43:42;-21668.13;;;19.48;34.23
7337;BME280;54510;42.016;23.098;2023-03-21T14:46:11;-21669.50;;;19.53;34.21
7337;BME280;54510;42.016;23.098;2023-03-21T14:48:36;-21665.13;;;19.37;35.03